createdAt,value
2017-10-17T00:02:52.982Z,84.90
2017-10-17T00:05:54.941Z,85.00
2017-10-17T00:08:57.298Z,85.00
2017-10-17T00:11:59.238Z,84.70
2017-10-17T00:15:01.240Z,84.70
2017-10-17T00:18:03.198Z,84.70
2017-10-17T00:21:05.165Z,84.70
2017-10-17T00:24:07.089Z,84.80
2017-10-17T00:27:10.967Z,84.90
2017-10-17T00:30:12.948Z,84.90
2017-10-17T00:33:14.925Z,84.90
2017-10-17T00:36:17.764Z,85.10
2017-10-17T00:39:20.179Z,85.10
2017-10-17T00:42:22.107Z,85.10
2017-10-17T00:45:24.117Z,85.10
2017-10-17T00:48:26.058Z,85.30
2017-10-17T00:51:28.779Z,85.70
2017-10-17T00:54:30.707Z,85.70
2017-10-17T00:57:32.678Z,85.50
2017-10-17T01:00:34.615Z,85.50
2017-10-17T01:03:37.357Z,85.50
2017-10-17T01:06:39.286Z,85.50
2017-10-17T01:09:42.013Z,85.60
2017-10-17T01:12:44.171Z,85.60
2017-10-17T01:15:46.884Z,85.40
2017-10-17T01:18:49.593Z,85.50
2017-10-17T01:21:51.545Z,85.50
2017-10-17T01:24:54.265Z,85.70
2017-10-17T01:28:08.693Z,85.80
2017-10-17T01:31:10.647Z,85.80
2017-10-17T01:34:12.617Z,85.90
2017-10-17T01:37:14.569Z,85.70
2017-10-17T01:40:23.389Z,85.80
2017-10-17T01:43:28.233Z,85.80
2017-10-17T01:46:30.579Z,85.90
2017-10-17T01:49:42.451Z,86.00
2017-10-17T01:52:45.204Z,86.00
2017-10-17T01:55:47.630Z,86.00
2017-10-17T01:58:50.451Z,86.10
2017-10-17T02:01:52.393Z,86.10
2017-10-17T02:04:54.370Z,86.30
2017-10-17T02:07:56.294Z,86.40
2017-10-17T02:11:00.089Z,86.20
2017-10-17T02:14:02.053Z,86.30
2017-10-17T02:17:04.030Z,86.40
2017-10-17T02:20:06.207Z,86.50
2017-10-17T02:23:09.046Z,86.50
2017-10-17T02:26:16.519Z,86.40
2017-10-17T02:29:21.979Z,86.30
2017-10-17T02:32:23.929Z,86.20
2017-10-17T02:35:30.984Z,87.10
2017-10-17T02:38:32.927Z,86.30
2017-10-17T02:41:35.970Z,86.40
2017-10-17T02:44:39.062Z,86.50
2017-10-17T02:47:41.812Z,87.20
2017-10-17T02:50:43.751Z,86.60
2017-10-17T02:53:46.490Z,86.70
2017-10-17T02:56:48.438Z,86.70
2017-10-17T02:59:58.587Z,87.00
2017-10-17T03:03:02.186Z,87.00
2017-10-17T03:06:04.190Z,87.20
2017-10-17T03:09:06.143Z,87.40
2017-10-17T03:12:08.122Z,87.60
2017-10-17T03:15:12.174Z,87.90
2017-10-17T03:18:14.150Z,88.10
2017-10-17T03:24:54.957Z,88.30
2017-10-17T03:28:04.487Z,88.70
2017-10-17T03:31:07.803Z,88.90
2017-10-17T03:34:14.213Z,89.00
2017-10-17T03:37:47.670Z,88.90
2017-10-17T03:40:51.390Z,88.90
2017-10-17T03:43:53.489Z,89.10
2017-10-17T03:46:55.421Z,89.30
2017-10-17T03:50:08.491Z,89.10
2017-10-17T03:53:31.294Z,89.10
2017-10-17T03:56:33.445Z,89.00
2017-10-17T03:59:35.407Z,88.90
2017-10-17T04:02:37.812Z,88.90
2017-10-17T04:05:41.530Z,88.80
2017-10-17T04:08:44.906Z,88.80
2017-10-17T04:11:46.838Z,88.80
2017-10-17T04:14:52.622Z,88.70
2017-10-17T04:18:04.305Z,88.60
2017-10-17T04:21:07.765Z,88.60
2017-10-17T04:24:21.390Z,88.60
2017-10-17T04:27:25.107Z,88.50
2017-10-17T04:30:38.668Z,88.50
2017-10-17T04:33:46.401Z,88.50
2017-10-17T04:36:59.637Z,88.40
2017-10-17T04:40:01.938Z,88.50
2017-10-17T04:43:15.899Z,88.40
2017-10-17T04:46:23.484Z,88.50
2017-10-17T04:49:47.902Z,88.30
2017-10-17T04:56:24.282Z,88.30
2017-10-17T04:59:34.989Z,88.60
2017-10-17T05:02:38.525Z,88.60
2017-10-17T05:05:43.896Z,89.50
2017-10-17T05:08:50.095Z,88.80
2017-10-17T05:11:52.043Z,88.80
2017-10-17T05:14:54.148Z,89.00
2017-10-17T05:18:01.406Z,89.10
2017-10-17T05:21:03.345Z,89.10
2017-10-17T05:24:28.686Z,89.40
2017-10-17T05:31:20.443Z,89.60
2017-10-17T05:34:26.785Z,90.00
2017-10-17T05:37:28.761Z,90.00
2017-10-17T05:40:30.813Z,90.10
2017-10-17T05:43:55.319Z,90.20
2017-10-17T05:46:59.894Z,90.20
2017-10-17T05:50:15.162Z,90.20
2017-10-17T05:53:17.867Z,90.30
2017-10-17T05:56:20.589Z,90.30
2017-10-17T05:59:22.547Z,90.30
2017-10-17T06:02:25.290Z,90.50
2017-10-17T06:05:27.259Z,90.10
2017-10-17T06:08:29.848Z,90.20
2017-10-17T06:11:31.773Z,90.10
2017-10-17T06:14:34.112Z,90.20
2017-10-17T06:17:36.926Z,90.20
2017-10-17T06:20:38.998Z,90.20
2017-10-17T06:23:41.707Z,90.30
2017-10-17T06:26:43.761Z,90.30
2017-10-17T06:29:45.753Z,90.20
2017-10-17T06:32:48.488Z,90.30
2017-10-17T06:35:50.420Z,90.20
2017-10-17T06:38:52.477Z,90.20
2017-10-17T06:41:54.410Z,90.30
2017-10-17T06:44:57.509Z,90.20
2017-10-17T06:47:59.467Z,90.20
2017-10-17T06:51:01.851Z,90.10
2017-10-17T06:54:03.781Z,90.00
2017-10-17T06:57:06.495Z,89.80
2017-10-17T07:00:09.210Z,89.60
2017-10-17T07:03:11.267Z,89.60
2017-10-17T07:06:13.265Z,89.50
2017-10-17T07:09:16.035Z,88.80
2017-10-17T07:12:18.034Z,88.90
2017-10-17T07:15:20.613Z,88.60
2017-10-17T07:18:22.611Z,88.60
2017-10-17T07:21:24.605Z,88.50
2017-10-17T07:24:27.306Z,88.30
2017-10-17T07:27:30.327Z,88.20
2017-10-17T07:30:33.114Z,88.00
2017-10-17T07:33:35.895Z,87.90
2017-10-17T07:36:38.593Z,87.60
2017-10-17T07:39:40.586Z,87.60
2017-10-17T07:42:44.119Z,86.60
2017-10-17T07:45:47.169Z,85.80
2017-10-17T07:48:49.098Z,85.70
2017-10-17T07:51:51.054Z,85.00
2017-10-17T07:54:52.981Z,84.30
2017-10-17T07:57:55.708Z,83.30
2017-10-17T08:00:57.658Z,83.20
2017-10-17T08:04:00.482Z,82.30
2017-10-17T08:07:02.434Z,82.40
2017-10-17T08:10:04.542Z,82.00
2017-10-17T08:13:06.574Z,80.80
2017-10-17T08:16:08.585Z,79.90
2017-10-17T08:19:11.273Z,78.80
2017-10-17T08:22:13.246Z,78.80
2017-10-17T08:25:15.200Z,78.10
2017-10-17T08:28:17.578Z,77.40
2017-10-17T08:31:19.553Z,77.00
2017-10-17T08:34:21.800Z,75.90
2017-10-17T08:37:23.806Z,74.90
2017-10-17T08:40:26.633Z,72.90
2017-10-17T08:43:28.597Z,72.90
2017-10-17T08:46:31.421Z,69.50
2017-10-17T08:49:33.345Z,69.30
2017-10-17T08:52:35.665Z,67.90
2017-10-17T08:55:37.591Z,66.40
2017-10-17T08:58:39.640Z,65.10
2017-10-17T09:01:42.361Z,62.10
2017-10-17T09:04:44.504Z,62.00
2017-10-17T09:07:46.521Z,61.20
2017-10-17T09:10:49.643Z,58.60
2017-10-17T09:13:51.594Z,58.60
2017-10-17T09:16:53.917Z,57.80
2017-10-17T09:19:56.618Z,55.30
2017-10-17T09:22:59.407Z,54.20
2017-10-17T09:26:01.379Z,54.20
2017-10-17T09:29:03.385Z,52.30
2017-10-17T09:32:06.177Z,51.60
2017-10-17T09:35:08.979Z,51.80
2017-10-17T09:38:10.918Z,51.70
2017-10-17T09:41:12.975Z,50.60
2017-10-17T09:44:14.930Z,49.30
2017-10-17T09:47:16.878Z,49.50
2017-10-17T09:50:18.908Z,49.20
2017-10-17T09:53:22.032Z,48.90
2017-10-17T09:56:24.842Z,48.50
2017-10-17T09:59:26.898Z,48.50
2017-10-17T10:02:28.901Z,48.30
2017-10-17T10:05:31.298Z,47.70
2017-10-17T10:08:33.254Z,46.70
2017-10-17T10:11:35.246Z,47.10
2017-10-17T10:14:37.277Z,47.40
2017-10-17T10:17:39.474Z,46.30
2017-10-17T10:20:41.410Z,45.30
2017-10-17T10:23:44.513Z,44.90
2017-10-17T10:26:46.524Z,44.60
2017-10-17T10:29:49.614Z,44.50
2017-10-17T10:32:51.541Z,44.50
2017-10-17T10:35:53.576Z,43.90
2017-10-17T10:38:56.458Z,43.60
2017-10-17T10:41:58.584Z,43.50
2017-10-17T10:45:01.379Z,45.00
2017-10-17T10:48:03.665Z,45.00
2017-10-17T10:51:05.596Z,43.90
2017-10-17T10:54:07.952Z,44.60
2017-10-17T10:57:11.102Z,42.90
2017-10-17T11:00:13.051Z,42.80
2017-10-17T11:03:15.858Z,43.60
2017-10-17T11:06:18.233Z,43.60
2017-10-17T11:09:20.588Z,43.50
2017-10-17T11:12:23.067Z,43.30
2017-10-17T11:15:25.012Z,43.40
2017-10-17T11:18:28.124Z,43.00
2017-10-17T11:21:30.807Z,43.40
2017-10-17T11:24:32.762Z,43.30
2017-10-17T11:27:34.690Z,43.30
2017-10-17T11:30:37.822Z,42.40
2017-10-17T11:33:39.907Z,42.40
2017-10-17T11:36:42.000Z,42.30
2017-10-17T11:39:43.931Z,42.40
2017-10-17T11:42:57.952Z,42.80
2017-10-17T11:45:59.910Z,42.40
2017-10-17T11:49:02.699Z,42.50
2017-10-17T11:52:04.657Z,42.50
2017-10-17T11:55:06.719Z,42.40
2017-10-17T11:58:08.672Z,42.50
2017-10-17T12:01:10.726Z,42.50
2017-10-17T12:04:13.433Z,42.90
2017-10-17T12:07:16.404Z,43.60
2017-10-17T12:10:18.349Z,43.50
2017-10-17T12:13:20.842Z,42.30
2017-10-17T12:16:22.769Z,42.30
2017-10-17T12:19:24.737Z,42.50
2017-10-17T12:22:26.783Z,42.90
2017-10-17T12:25:29.185Z,43.40
2017-10-17T12:28:31.267Z,42.70
2017-10-17T12:31:33.237Z,42.90
2017-10-17T12:34:36.137Z,44.00
2017-10-17T12:37:39.347Z,44.50
2017-10-17T12:40:42.172Z,45.60
2017-10-17T12:43:44.544Z,45.40
2017-10-17T12:46:47.461Z,45.30
2017-10-17T12:49:49.830Z,45.30
2017-10-17T12:52:51.846Z,45.60
2017-10-17T12:55:54.202Z,45.90
2017-10-17T12:58:56.193Z,46.20
2017-10-17T13:01:58.935Z,47.40
2017-10-17T13:05:00.899Z,47.30
2017-10-17T13:08:03.255Z,47.50
2017-10-17T13:11:05.185Z,47.70
2017-10-17T13:14:07.255Z,48.00
2017-10-17T13:17:09.239Z,47.90
2017-10-17T13:20:11.213Z,48.50
2017-10-17T13:23:13.997Z,50.00
2017-10-17T13:26:16.748Z,49.80
2017-10-17T13:29:18.908Z,49.80
2017-10-17T13:32:21.716Z,50.70
2017-10-17T13:35:24.912Z,50.70
2017-10-17T13:38:28.358Z,49.70
2017-10-17T13:41:30.313Z,49.80
2017-10-17T13:44:33.101Z,50.40
2017-10-17T13:47:35.826Z,50.40
2017-10-17T13:50:38.227Z,50.40
2017-10-17T13:53:40.294Z,50.70
2017-10-17T13:56:43.091Z,51.30
2017-10-17T13:59:45.881Z,51.50
2017-10-17T14:02:47.902Z,51.50
2017-10-17T14:05:49.865Z,51.70
2017-10-17T14:08:52.978Z,53.50
2017-10-17T14:11:55.793Z,54.60
2017-10-17T14:14:58.186Z,54.70
2017-10-17T14:18:01.188Z,55.00
2017-10-17T14:21:04.285Z,55.80
2017-10-17T14:24:07.089Z,56.40
2017-10-17T14:27:09.813Z,56.50
2017-10-17T14:30:11.778Z,56.40
2017-10-17T14:33:14.613Z,57.40
2017-10-17T14:36:16.534Z,58.00
2017-10-17T14:39:18.505Z,57.90
2017-10-17T14:42:20.506Z,58.00
2017-10-17T14:45:22.795Z,58.30
2017-10-17T14:48:24.737Z,58.80
2017-10-17T14:51:26.873Z,59.00
2017-10-17T14:54:29.565Z,60.40
2017-10-17T14:57:31.573Z,60.40
2017-10-17T15:00:34.385Z,61.60
2017-10-17T15:03:36.450Z,61.70
2017-10-17T15:06:39.170Z,62.80
2017-10-17T15:09:41.243Z,62.90
2017-10-17T15:12:44.047Z,63.60
2017-10-17T15:15:46.786Z,64.30
2017-10-17T15:18:48.770Z,64.30
2017-10-17T15:21:50.846Z,65.10
2017-10-17T15:24:53.622Z,65.60
2017-10-17T15:27:55.769Z,65.90
2017-10-17T15:30:57.799Z,66.60
2017-10-17T15:34:00.099Z,67.20
2017-10-17T15:37:02.061Z,67.70
2017-10-17T15:40:04.890Z,68.90
2017-10-17T15:43:06.958Z,68.90
2017-10-17T15:46:09.048Z,69.20
2017-10-17T15:49:11.015Z,69.80
2017-10-17T15:52:13.851Z,70.90
2017-10-17T15:55:15.829Z,70.90
2017-10-17T15:58:17.898Z,71.40
2017-10-17T16:01:20.719Z,72.50
2017-10-17T16:04:22.806Z,72.50
2017-10-17T16:07:24.962Z,73.30
2017-10-17T16:10:27.797Z,74.00
2017-10-17T16:13:29.729Z,74.00
2017-10-17T16:16:31.760Z,74.20
2017-10-17T16:19:33.706Z,74.70
2017-10-17T16:22:35.835Z,75.30
2017-10-17T16:25:37.785Z,75.80
2017-10-17T16:28:40.931Z,76.60
2017-10-17T16:31:42.870Z,76.60
2017-10-17T16:34:45.689Z,77.60
2017-10-17T16:37:47.658Z,77.60
2017-10-17T16:40:50.403Z,78.00
2017-10-17T16:43:52.498Z,78.00
2017-10-17T16:46:54.566Z,78.10
2017-10-17T16:49:56.536Z,78.40
2017-10-17T16:52:58.621Z,78.80
2017-10-17T16:56:00.574Z,79.20
2017-10-17T16:59:03.290Z,80.30
2017-10-17T17:02:06.103Z,80.00
2017-10-17T17:05:08.091Z,79.90
2017-10-17T17:08:10.164Z,80.20
2017-10-17T17:11:13.229Z,81.00
2017-10-17T17:14:15.239Z,81.00
2017-10-17T17:17:18.047Z,82.00
2017-10-17T17:20:20.163Z,81.70
2017-10-17T17:23:22.153Z,82.20
2017-10-17T17:26:24.090Z,82.70
2017-10-17T17:29:26.094Z,83.10
2017-10-17T17:32:28.797Z,83.60
2017-10-17T17:35:31.922Z,83.70
2017-10-17T17:38:33.882Z,83.70
2017-10-17T17:41:37.023Z,83.70
2017-10-17T17:44:39.143Z,83.60
2017-10-17T17:47:41.465Z,83.80
2017-10-17T17:50:44.197Z,84.30
2017-10-17T17:53:46.466Z,84.20
2017-10-17T17:56:48.541Z,84.20
2017-10-17T17:59:51.701Z,84.50
2017-10-17T18:02:53.636Z,84.40
2017-10-17T18:05:56.582Z,84.60
2017-10-17T18:08:58.572Z,84.60
2017-10-17T18:12:00.589Z,84.50
2017-10-17T18:15:02.719Z,84.80
2017-10-17T18:18:04.700Z,84.90
2017-10-17T18:21:07.580Z,85.10
2017-10-17T18:24:10.337Z,85.70
2017-10-17T18:27:12.280Z,85.40
2017-10-17T18:30:14.930Z,85.50
2017-10-17T18:33:16.911Z,85.80
2017-10-17T18:36:19.349Z,86.00
2017-10-17T18:39:22.093Z,86.50
2017-10-17T18:42:25.283Z,86.80
2017-10-17T18:45:27.320Z,86.80
2017-10-17T18:48:29.363Z,87.10
2017-10-17T18:51:31.339Z,87.30
2017-10-17T18:54:33.415Z,87.40
2017-10-17T18:57:35.965Z,87.80
2017-10-17T19:00:37.967Z,88.10
2017-10-17T19:03:39.973Z,88.10
2017-10-17T19:06:42.061Z,88.30
2017-10-17T19:09:44.203Z,88.40
2017-10-17T19:12:46.211Z,88.50
2017-10-17T19:15:49.028Z,89.00
2017-10-17T19:18:52.161Z,89.20
2017-10-17T19:21:54.318Z,89.30
2017-10-17T19:24:57.090Z,89.60
2017-10-17T19:27:59.305Z,89.60
2017-10-17T19:31:02.046Z,89.80
2017-10-17T19:34:04.020Z,89.70
2017-10-17T19:37:06.097Z,90.00
2017-10-17T19:40:08.045Z,90.10
2017-10-17T19:43:10.447Z,90.20
2017-10-17T19:46:13.288Z,90.40
2017-10-17T19:49:15.290Z,90.30
2017-10-17T19:52:17.271Z,90.40
2017-10-17T19:55:19.416Z,90.40
2017-10-17T19:58:22.852Z,90.40
2017-10-17T20:01:25.237Z,90.40
2017-10-17T20:04:27.178Z,90.40
2017-10-17T20:07:29.169Z,90.40
2017-10-17T20:10:31.906Z,90.40
2017-10-17T20:13:34.176Z,90.30
2017-10-17T20:16:36.975Z,90.30
2017-10-17T20:19:40.110Z,90.40
2017-10-17T20:22:42.082Z,90.30
2017-10-17T20:25:44.314Z,90.40
2017-10-17T20:28:46.349Z,90.50
2017-10-17T20:31:48.437Z,90.50
2017-10-17T20:34:50.383Z,90.50
2017-10-17T20:37:53.695Z,90.60
2017-10-17T20:40:55.667Z,90.70
2017-10-17T20:43:57.711Z,90.80
2017-10-17T20:47:00.437Z,90.80
2017-10-17T20:50:02.823Z,90.80
2017-10-17T20:53:04.790Z,91.00
2017-10-17T20:56:07.206Z,91.00
2017-10-17T20:59:09.195Z,91.00
2017-10-17T21:02:11.277Z,91.00
2017-10-17T21:05:13.942Z,91.10
2017-10-17T21:08:16.840Z,91.40
2017-10-17T21:11:19.573Z,91.50
2017-10-17T21:14:21.581Z,91.50
2017-10-17T21:17:24.382Z,91.60
2017-10-17T21:20:26.613Z,91.80
2017-10-17T21:23:29.553Z,92.00
2017-10-17T21:26:31.551Z,92.00
2017-10-17T21:29:33.489Z,92.10
2017-10-17T21:32:36.623Z,92.40
2017-10-17T21:35:38.782Z,92.40
2017-10-17T21:38:41.589Z,92.60
2017-10-17T21:41:44.420Z,92.70
2017-10-17T21:44:46.426Z,92.70
2017-10-17T21:47:48.513Z,92.70
2017-10-17T21:50:50.546Z,93.00
2017-10-17T21:53:53.358Z,92.70
2017-10-17T21:56:55.555Z,92.70
2017-10-17T21:59:57.513Z,92.80
2017-10-17T22:03:00.674Z,93.00
2017-10-17T22:06:02.640Z,93.00
2017-10-17T22:09:04.698Z,93.00
2017-10-17T22:12:07.440Z,93.20
2017-10-17T22:15:09.817Z,93.20
2017-10-17T22:18:11.794Z,93.30
2017-10-17T22:21:13.813Z,93.40
2017-10-17T22:24:15.757Z,93.50
2017-10-17T22:27:17.932Z,93.70
2017-10-17T22:30:20.651Z,93.70
2017-10-17T22:33:22.703Z,93.80
2017-10-17T22:36:24.674Z,93.70
2017-10-17T22:39:27.729Z,94.10
2017-10-17T22:42:29.684Z,93.90
2017-10-17T22:45:32.467Z,94.00
2017-10-17T22:48:34.501Z,94.00
2017-10-17T22:51:36.490Z,94.00
2017-10-17T22:54:38.410Z,93.90
2017-10-17T22:57:40.374Z,94.00
2017-10-17T23:00:42.330Z,94.00
2017-10-17T23:03:44.401Z,94.00
2017-10-17T23:06:46.379Z,94.00
2017-10-17T23:09:48.659Z,94.00
2017-10-17T23:12:51.472Z,94.00
2017-10-17T23:15:54.555Z,94.10
2017-10-17T23:19:08.637Z,94.10
2017-10-17T23:22:11.749Z,94.00
2017-10-17T23:25:15.357Z,94.10
2017-10-17T23:28:17.960Z,94.50
2017-10-17T23:31:19.954Z,94.60
2017-10-17T23:34:22.954Z,94.60
2017-10-17T23:37:26.234Z,94.60
2017-10-17T23:40:28.805Z,94.60
2017-10-17T23:43:30.735Z,94.70
2017-10-17T23:46:33.051Z,94.60
2017-10-17T23:49:35.009Z,94.60
2017-10-17T23:52:36.985Z,94.70
2017-10-17T23:55:38.930Z,94.70
2017-10-17T23:58:40.923Z,94.70
